Terminal Aerodrome Forecast
Issued by NWS

Home | Current Version | Previous Version | Text Only | Print | Product List | Glossary On
Versions: 1 2 3 4 5 6 7 8 9 10 11 12 13 14
000
FTUS46 KEKA 240525
TAFCEC
TAF
KCEC 240525Z 2406/2506 17003KT P6SM FEW005
     FM240800 VRB03KT 6SM BR SCT005
     FM241200 VRB03KT 1/2SM FG BKN005
     FM241800 18005KT 2SM BR SCT005
     FM242100 18005KT P6SM SKC=

USA.gov is the U.S. government's official web portal to all federal, state and local government web resources and services.